createdAt,value
2023-12-29T00:00:21.302Z,969.11
2023-12-29T00:01:21.280Z,969.06
2023-12-29T00:02:21.218Z,969.08
2023-12-29T00:03:21.280Z,969.07
2023-12-29T00:04:21.166Z,969.07
2023-12-29T00:05:21.136Z,969.08
2023-12-29T00:06:21.101Z,969.08
2023-12-29T00:07:22.276Z,969.06
2023-12-29T00:08:21.063Z,969.13
2023-12-29T00:09:21.098Z,969.06
2023-12-29T00:10:21.142Z,969.06
2023-12-29T00:11:21.101Z,969.04
2023-12-29T00:12:21.121Z,969.02
2023-12-29T00:13:21.056Z,969.05
2023-12-29T00:14:21.009Z,968.97
2023-12-29T00:15:21.020Z,968.97
2023-12-29T00:16:20.998Z,968.96
2023-12-29T00:17:20.946Z,968.92
2023-12-29T00:18:21.008Z,968.94
2023-12-29T00:19:21.109Z,968.95
2023-12-29T00:20:29.589Z,968.86
2023-12-29T00:21:21.020Z,968.86
2023-12-29T00:22:20.915Z,968.92
2023-12-29T00:23:20.863Z,968.92
2023-12-29T00:24:20.882Z,968.94
2023-12-29T00:25:20.919Z,968.87
2023-12-29T00:26:20.863Z,968.88
2023-12-29T00:27:20.828Z,968.89
2023-12-29T00:28:20.916Z,968.92
2023-12-29T00:29:20.799Z,968.94
2023-12-29T00:30:20.793Z,968.85
2023-12-29T00:31:20.851Z,968.81
2023-12-29T00:32:20.893Z,968.77
2023-12-29T00:33:20.890Z,968.76
2023-12-29T00:34:20.810Z,968.79
2023-12-29T00:35:20.720Z,968.81
2023-12-29T00:36:20.727Z,968.81
2023-12-29T00:37:20.736Z,968.84
2023-12-29T00:38:20.691Z,968.84
2023-12-29T00:39:20.687Z,968.84
2023-12-29T00:40:20.767Z,968.83
2023-12-29T00:41:20.628Z,968.76
2023-12-29T00:42:20.680Z,968.77
2023-12-29T00:43:21.245Z,968.74
2023-12-29T00:44:20.618Z,968.69
2023-12-29T00:45:20.621Z,968.80
2023-12-29T00:46:20.617Z,968.74
2023-12-29T00:47:20.592Z,968.73
2023-12-29T00:48:20.721Z,968.76
2023-12-29T00:49:20.769Z,968.75
2023-12-29T00:50:20.568Z,968.74
2023-12-29T00:51:20.495Z,968.79
2023-12-29T00:52:20.578Z,968.77
2023-12-29T00:53:20.487Z,968.73
2023-12-29T00:54:20.510Z,968.73
2023-12-29T00:55:20.516Z,968.71
2023-12-29T00:56:20.477Z,968.80
2023-12-29T00:57:20.422Z,968.73
2023-12-29T00:58:20.464Z,968.69
2023-12-29T00:59:20.391Z,968.69
2023-12-29T01:00:20.444Z,968.73
2023-12-29T01:01:20.463Z,968.70
2023-12-29T01:02:20.441Z,968.74
2023-12-29T01:03:22.056Z,968.71
2023-12-29T01:04:20.604Z,968.74
2023-12-29T01:05:20.415Z,968.74
2023-12-29T01:06:20.364Z,968.74
2023-12-29T01:07:20.366Z,968.73
2023-12-29T01:08:20.379Z,968.73
2023-12-29T01:09:20.296Z,968.74
2023-12-29T01:10:20.344Z,968.82
2023-12-29T01:11:20.243Z,968.83
2023-12-29T01:12:20.290Z,968.86
2023-12-29T01:13:20.241Z,968.89
2023-12-29T01:14:20.276Z,968.86
2023-12-29T01:15:20.186Z,968.86
2023-12-29T01:16:20.259Z,968.84
2023-12-29T01:17:20.260Z,968.86
2023-12-29T01:18:20.352Z,968.85
2023-12-29T01:19:20.186Z,968.90
2023-12-29T01:20:20.168Z,968.90
2023-12-29T01:21:20.145Z,968.87
2023-12-29T01:22:20.195Z,968.97
2023-12-29T01:23:20.098Z,968.93
2023-12-29T01:24:26.468Z,968.95
2023-12-29T01:25:20.081Z,968.99
2023-12-29T01:26:20.101Z,969.03
2023-12-29T01:27:20.091Z,969.04
2023-12-29T01:28:20.085Z,969.11
2023-12-29T01:29:20.017Z,969.11
2023-12-29T01:30:20.064Z,969.10
2023-12-29T01:31:20.097Z,969.13
2023-12-29T01:32:20.041Z,969.12
2023-12-29T01:33:19.972Z,969.05
2023-12-29T01:34:20.029Z,969.05
2023-12-29T01:35:20.530Z,968.98
2023-12-29T01:36:24.847Z,968.98
2023-12-29T01:37:20.017Z,969.05
2023-12-29T01:38:19.942Z,969.01
2023-12-29T01:39:19.876Z,968.98
2023-12-29T01:40:19.944Z,969.04
2023-12-29T01:41:19.880Z,969.10
2023-12-29T01:42:19.907Z,969.14
2023-12-29T01:43:19.903Z,969.20
2023-12-29T01:44:19.853Z,969.16
2023-12-29T01:45:19.829Z,969.16
2023-12-29T01:46:19.824Z,969.20
2023-12-29T01:47:19.826Z,969.19
2023-12-29T01:48:19.853Z,969.15
2023-12-29T01:49:19.877Z,969.20
2023-12-29T01:50:22.212Z,969.10
2023-12-29T01:51:19.739Z,969.06
2023-12-29T01:52:19.781Z,969.11
2023-12-29T01:53:24.694Z,969.05
2023-12-29T01:54:19.750Z,969.06
2023-12-29T01:55:19.793Z,969.01
2023-12-29T01:56:19.707Z,968.98
2023-12-29T01:57:19.651Z,968.99
2023-12-29T01:58:19.707Z,968.98
2023-12-29T01:59:25.440Z,969.00
2023-12-29T02:00:19.705Z,969.09
2023-12-29T02:01:19.703Z,969.06
2023-12-29T02:02:19.645Z,969.06
2023-12-29T02:03:19.583Z,969.03
2023-12-29T02:04:19.763Z,968.99
2023-12-29T02:05:19.586Z,968.96
2023-12-29T02:06:19.552Z,968.96
2023-12-29T02:07:19.551Z,968.95
2023-12-29T02:08:19.555Z,968.92
2023-12-29T02:09:19.492Z,968.91
2023-12-29T02:10:19.598Z,968.98
2023-12-29T02:11:19.570Z,968.93
2023-12-29T02:12:19.481Z,968.89
2023-12-29T02:13:19.507Z,968.91
2023-12-29T02:14:19.507Z,968.89
2023-12-29T02:15:19.453Z,968.91
2023-12-29T02:16:19.469Z,968.98
2023-12-29T02:17:19.374Z,968.96
2023-12-29T02:18:19.502Z,968.90
2023-12-29T02:19:19.426Z,968.89
2023-12-29T02:20:19.385Z,968.90
2023-12-29T02:21:19.338Z,968.91
2023-12-29T02:22:19.423Z,968.93
2023-12-29T02:23:19.304Z,968.87
2023-12-29T02:24:19.323Z,968.92
2023-12-29T02:25:19.409Z,968.93
2023-12-29T02:26:19.296Z,968.87
2023-12-29T02:27:19.244Z,968.85
2023-12-29T02:28:19.343Z,968.89
2023-12-29T02:29:19.223Z,968.90
2023-12-29T02:30:19.264Z,968.90
2023-12-29T02:31:19.394Z,968.83
2023-12-29T02:32:19.216Z,968.88
2023-12-29T02:33:19.286Z,968.84
2023-12-29T02:34:19.295Z,968.88
2023-12-29T02:35:19.341Z,968.84
2023-12-29T02:36:19.162Z,968.87
2023-12-29T02:37:19.159Z,968.85
2023-12-29T02:38:19.144Z,968.82
2023-12-29T02:39:19.102Z,968.83
2023-12-29T02:40:19.240Z,968.83
2023-12-29T02:41:19.069Z,968.77
2023-12-29T02:42:19.110Z,968.75
2023-12-29T02:43:19.103Z,968.77
2023-12-29T02:44:19.062Z,968.68
2023-12-29T02:45:19.061Z,968.72
2023-12-29T02:46:19.070Z,968.69
2023-12-29T02:47:18.995Z,968.72
2023-12-29T02:48:19.082Z,968.60
2023-12-29T02:49:19.059Z,968.64
2023-12-29T02:50:18.987Z,968.63
2023-12-29T02:51:18.953Z,968.65
2023-12-29T02:52:18.964Z,968.69
2023-12-29T02:53:18.935Z,968.67
2023-12-29T02:54:19.055Z,968.65
2023-12-29T02:55:18.954Z,968.65
2023-12-29T02:56:18.907Z,968.63
2023-12-29T02:57:18.891Z,968.63
2023-12-29T02:58:18.975Z,968.60
2023-12-29T02:59:18.884Z,968.63
2023-12-29T03:00:18.910Z,968.60
2023-12-29T03:01:18.927Z,968.49
2023-12-29T03:02:18.837Z,968.52
2023-12-29T03:03:18.826Z,968.54
2023-12-29T03:04:18.892Z,968.55
2023-12-29T03:05:18.844Z,968.56
2023-12-29T03:06:18.786Z,968.46
2023-12-29T03:07:18.773Z,968.50
2023-12-29T03:08:18.790Z,968.47
2023-12-29T03:09:18.752Z,968.39
2023-12-29T03:10:18.797Z,968.44
2023-12-29T03:11:18.700Z,968.41
2023-12-29T03:12:18.696Z,968.44
2023-12-29T03:13:18.729Z,968.46
2023-12-29T03:14:18.682Z,968.48
2023-12-29T03:15:18.718Z,968.44
2023-12-29T03:16:18.698Z,968.47
2023-12-29T03:17:18.682Z,968.39
2023-12-29T03:18:18.781Z,968.36
2023-12-29T03:19:18.642Z,968.30
2023-12-29T03:20:18.606Z,968.22
2023-12-29T03:21:18.612Z,968.22
2023-12-29T03:22:18.610Z,968.23
2023-12-29T03:23:18.532Z,968.27
2023-12-29T03:24:18.543Z,968.28
2023-12-29T03:25:18.672Z,968.31
2023-12-29T03:26:18.518Z,968.28
2023-12-29T03:27:18.492Z,968.29
2023-12-29T03:28:18.541Z,968.31
2023-12-29T03:29:18.570Z,968.31
2023-12-29T03:30:18.712Z,968.28
2023-12-29T03:31:18.535Z,968.30
2023-12-29T03:32:18.438Z,968.30
2023-12-29T03:33:18.484Z,968.27
2023-12-29T03:34:18.516Z,968.30
2023-12-29T03:35:18.382Z,968.28
2023-12-29T03:36:18.393Z,968.26
2023-12-29T03:37:18.441Z,968.25
2023-12-29T03:38:18.418Z,968.24
2023-12-29T03:39:18.342Z,968.25
2023-12-29T03:40:18.566Z,968.21
2023-12-29T03:41:18.305Z,968.18
2023-12-29T03:42:18.316Z,968.18
2023-12-29T03:43:18.314Z,968.16
2023-12-29T03:44:18.317Z,968.18
2023-12-29T03:45:18.252Z,968.19
2023-12-29T03:46:18.320Z,968.15
2023-12-29T03:47:18.306Z,968.15
2023-12-29T03:48:18.301Z,968.14
2023-12-29T03:49:18.245Z,968.13
2023-12-29T03:50:18.248Z,968.18
2023-12-29T03:51:18.269Z,968.17
2023-12-29T03:52:18.203Z,968.16
2023-12-29T03:53:18.155Z,968.16
2023-12-29T03:54:18.168Z,968.15
2023-12-29T03:55:18.162Z,968.16
2023-12-29T03:56:18.251Z,968.16
2023-12-29T03:57:18.215Z,968.18
2023-12-29T03:58:18.130Z,968.19
2023-12-29T03:59:18.085Z,968.16
2023-12-29T04:00:18.113Z,968.11
2023-12-29T04:01:18.194Z,968.10
2023-12-29T04:02:18.068Z,968.13
2023-12-29T04:03:18.028Z,968.13
2023-12-29T04:04:18.106Z,968.03
2023-12-29T04:05:18.073Z,968.01
2023-12-29T04:06:18.030Z,967.99
2023-12-29T04:07:17.983Z,968.07
2023-12-29T04:08:17.975Z,968.08
2023-12-29T04:09:17.961Z,967.99
2023-12-29T04:10:17.989Z,968.03
2023-12-29T04:11:17.910Z,968.08
2023-12-29T04:12:17.923Z,968.08
2023-12-29T04:13:17.881Z,968.12
2023-12-29T04:14:17.933Z,968.11
2023-12-29T04:15:17.866Z,968.11
2023-12-29T04:16:17.881Z,968.13
2023-12-29T04:17:17.883Z,968.14
2023-12-29T04:18:17.970Z,968.10
2023-12-29T04:19:17.948Z,968.12
2023-12-29T04:20:17.816Z,968.04
2023-12-29T04:21:17.802Z,968.05
2023-12-29T04:22:17.832Z,968.03
2023-12-29T04:23:17.792Z,967.97
2023-12-29T04:24:17.773Z,967.98
2023-12-29T04:25:17.731Z,968.00
2023-12-29T04:26:17.767Z,967.94
2023-12-29T04:27:17.706Z,967.93
2023-12-29T04:28:17.736Z,967.97
2023-12-29T04:29:17.701Z,968.02
2023-12-29T04:30:17.786Z,968.06
2023-12-29T04:31:17.739Z,968.10
2023-12-29T04:32:17.635Z,968.11
2023-12-29T04:33:17.673Z,968.15
2023-12-29T04:34:17.670Z,968.14
2023-12-29T04:35:17.658Z,968.14
2023-12-29T04:36:17.598Z,968.18
2023-12-29T04:37:17.600Z,968.16
2023-12-29T04:38:17.603Z,968.15
2023-12-29T04:39:17.592Z,968.09
2023-12-29T04:40:17.531Z,968.13
2023-12-29T04:41:17.606Z,968.08
2023-12-29T04:42:17.538Z,968.10
2023-12-29T04:43:17.537Z,968.11
2023-12-29T04:44:17.559Z,968.10
2023-12-29T04:45:17.518Z,968.14
2023-12-29T04:46:17.486Z,968.20
2023-12-29T04:47:17.510Z,968.19
2023-12-29T04:48:17.480Z,968.20
2023-12-29T04:49:17.549Z,968.22
2023-12-29T04:50:17.468Z,968.21
2023-12-29T04:51:17.423Z,968.16
2023-12-29T04:52:17.420Z,968.12
2023-12-29T04:53:17.425Z,968.10
2023-12-29T04:54:17.364Z,968.15
2023-12-29T04:55:17.471Z,968.09
2023-12-29T04:56:17.356Z,968.12
2023-12-29T04:57:17.363Z,968.08
2023-12-29T04:58:17.407Z,968.12
2023-12-29T04:59:17.319Z,968.14
2023-12-29T05:00:17.300Z,968.19
2023-12-29T05:01:17.372Z,968.15
2023-12-29T05:02:17.305Z,968.10
2023-12-29T05:03:17.308Z,968.14
2023-12-29T05:04:17.290Z,968.14
2023-12-29T05:05:17.281Z,968.12
2023-12-29T05:06:17.215Z,968.07
2023-12-29T05:07:17.224Z,968.06
2023-12-29T05:08:17.227Z,968.01
2023-12-29T05:09:17.185Z,967.96
2023-12-29T05:10:17.234Z,968.04
2023-12-29T05:11:17.215Z,968.02
2023-12-29T05:12:17.179Z,968.06
2023-12-29T05:13:17.190Z,968.05
2023-12-29T05:14:17.098Z,967.99
2023-12-29T05:15:17.156Z,968.02
2023-12-29T05:16:17.153Z,967.95
2023-12-29T05:17:17.078Z,968.01
2023-12-29T05:18:17.081Z,968.02
2023-12-29T05:19:17.131Z,968.02
2023-12-29T05:20:17.025Z,968.01
2023-12-29T05:21:17.039Z,967.97
2023-12-29T05:22:17.056Z,968.00
2023-12-29T05:23:17.085Z,968.00
2023-12-29T05:24:16.969Z,968.05
2023-12-29T05:25:17.057Z,968.12
2023-12-29T05:26:16.962Z,968.08
2023-12-29T05:27:16.985Z,968.07
2023-12-29T05:28:16.969Z,968.09
2023-12-29T05:29:17.008Z,968.09
2023-12-29T05:30:17.502Z,968.12
2023-12-29T05:31:16.980Z,968.14
2023-12-29T05:32:16.940Z,968.15
2023-12-29T05:33:16.959Z,968.17
2023-12-29T05:34:16.917Z,968.09
2023-12-29T05:35:16.880Z,968.11
2023-12-29T05:36:16.819Z,968.09
2023-12-29T05:37:16.950Z,968.09
2023-12-29T05:38:16.814Z,968.13
2023-12-29T05:39:16.855Z,968.11
2023-12-29T05:40:16.850Z,968.17
2023-12-29T05:41:16.781Z,968.12
2023-12-29T05:42:16.746Z,968.14
2023-12-29T05:43:16.832Z,968.15
2023-12-29T05:44:16.724Z,968.17
2023-12-29T05:45:16.726Z,968.16
2023-12-29T05:46:16.775Z,968.19
2023-12-29T05:47:16.701Z,968.20
2023-12-29T05:48:16.795Z,968.21
2023-12-29T05:49:16.842Z,968.21
2023-12-29T05:50:16.645Z,968.21
2023-12-29T05:51:16.651Z,968.25
2023-12-29T05:52:16.683Z,968.19
2023-12-29T05:53:16.633Z,968.16
2023-12-29T05:54:16.627Z,968.21
2023-12-29T05:55:16.649Z,968.21
2023-12-29T05:56:16.566Z,968.22
2023-12-29T05:57:16.582Z,968.20
2023-12-29T05:58:16.584Z,968.22
2023-12-29T05:59:16.578Z,968.19
2023-12-29T06:00:16.518Z,968.23
2023-12-29T06:01:16.648Z,968.19
2023-12-29T06:02:16.523Z,968.17
2023-12-29T06:03:16.535Z,968.18
2023-12-29T06:04:16.527Z,968.17
2023-12-29T06:05:16.526Z,968.21
2023-12-29T06:06:16.439Z,968.18
2023-12-29T06:07:16.564Z,968.17
2023-12-29T06:08:16.464Z,968.19
2023-12-29T06:09:16.420Z,968.22
2023-12-29T06:10:16.450Z,968.21
2023-12-29T06:11:16.402Z,968.22
2023-12-29T06:12:16.388Z,968.21
2023-12-29T06:13:16.400Z,968.21
2023-12-29T06:14:16.375Z,968.19
2023-12-29T06:15:17.401Z,968.17
2023-12-29T06:16:16.380Z,968.18
2023-12-29T06:17:16.422Z,968.22
2023-12-29T06:18:16.346Z,968.23
2023-12-29T06:19:16.450Z,968.24
2023-12-29T06:20:16.267Z,968.24
2023-12-29T06:21:16.276Z,968.29
2023-12-29T06:22:16.263Z,968.27
2023-12-29T06:23:16.279Z,968.31
2023-12-29T06:24:16.251Z,968.36
2023-12-29T06:25:16.255Z,968.31
2023-12-29T06:26:16.179Z,968.35
2023-12-29T06:27:16.219Z,968.32
2023-12-29T06:28:16.208Z,968.34
2023-12-29T06:29:16.245Z,968.33
2023-12-29T06:30:16.151Z,968.31
2023-12-29T06:31:16.226Z,968.32
2023-12-29T06:32:16.116Z,968.33
2023-12-29T06:33:16.288Z,968.29
2023-12-29T06:34:16.132Z,968.30
2023-12-29T06:35:16.094Z,968.30
2023-12-29T06:36:16.077Z,968.21
2023-12-29T06:37:16.122Z,968.20
2023-12-29T06:38:16.034Z,968.23
2023-12-29T06:39:16.042Z,968.25
2023-12-29T06:40:16.080Z,968.26
2023-12-29T06:41:16.042Z,968.25
2023-12-29T06:42:15.968Z,968.23
2023-12-29T06:43:16.084Z,968.22
2023-12-29T06:44:15.952Z,968.17
2023-12-29T06:45:15.960Z,968.15
2023-12-29T06:46:16.005Z,968.13
2023-12-29T06:47:15.945Z,968.14
2023-12-29T06:48:16.495Z,968.15
2023-12-29T06:49:16.077Z,968.16
2023-12-29T06:50:15.913Z,968.13
2023-12-29T06:51:15.879Z,968.14
2023-12-29T06:52:15.952Z,968.16
2023-12-29T06:53:15.844Z,968.12
2023-12-29T06:54:15.877Z,968.10
2023-12-29T06:55:15.885Z,968.05
2023-12-29T06:56:15.793Z,968.08
2023-12-29T06:57:15.841Z,968.03
2023-12-29T06:58:15.850Z,968.05
2023-12-29T06:59:15.799Z,968.02
2023-12-29T07:00:15.804Z,968.02
2023-12-29T07:01:15.941Z,968.02
2023-12-29T07:02:15.784Z,968.02
2023-12-29T07:03:15.813Z,968.00
2023-12-29T07:04:15.712Z,967.99
2023-12-29T07:05:15.838Z,968.00
2023-12-29T07:06:15.857Z,967.97
2023-12-29T07:07:15.744Z,967.94
2023-12-29T07:08:15.677Z,967.93
2023-12-29T07:09:15.667Z,967.95
2023-12-29T07:10:15.785Z,968.03
2023-12-29T07:11:15.614Z,968.16
2023-12-29T07:12:15.602Z,968.14
2023-12-29T07:13:15.691Z,968.12
2023-12-29T07:14:15.569Z,968.17
2023-12-29T07:15:15.570Z,968.20
2023-12-29T07:16:15.592Z,968.23
2023-12-29T07:17:15.607Z,968.25
2023-12-29T07:18:15.601Z,968.23
2023-12-29T07:19:15.686Z,968.21
2023-12-29T07:20:15.484Z,968.24
2023-12-29T07:21:18.121Z,968.22
2023-12-29T07:22:15.573Z,968.18
2023-12-29T07:23:15.497Z,968.19
2023-12-29T07:24:15.598Z,968.18
2023-12-29T07:25:15.533Z,968.12
2023-12-29T07:26:15.426Z,968.16
2023-12-29T07:27:15.571Z,968.14
2023-12-29T07:28:15.469Z,968.16
2023-12-29T07:29:15.409Z,968.10
2023-12-29T07:30:15.392Z,968.08
2023-12-29T07:31:15.532Z,968.10
2023-12-29T07:32:15.352Z,968.10
2023-12-29T07:33:15.445Z,968.09
2023-12-29T07:34:15.376Z,968.09
2023-12-29T07:35:15.469Z,968.16
2023-12-29T07:36:16.070Z,968.13
2023-12-29T07:37:15.380Z,968.17
2023-12-29T07:38:15.248Z,968.14
2023-12-29T07:39:15.280Z,968.15
2023-12-29T07:40:15.262Z,968.15
2023-12-29T07:41:15.285Z,968.12
2023-12-29T07:42:15.274Z,968.16
2023-12-29T07:43:15.285Z,968.09
2023-12-29T07:44:15.207Z,968.15
2023-12-29T07:45:15.220Z,968.13
2023-12-29T07:46:15.233Z,968.16
2023-12-29T07:47:15.170Z,968.13
2023-12-29T07:48:15.283Z,968.17
2023-12-29T07:49:15.201Z,968.14
2023-12-29T07:50:15.109Z,968.15
2023-12-29T07:51:15.116Z,968.19
2023-12-29T07:52:15.187Z,968.15
2023-12-29T07:53:15.137Z,968.16
2023-12-29T07:54:15.105Z,968.14
2023-12-29T07:55:15.104Z,968.13
2023-12-29T07:56:15.046Z,968.12
2023-12-29T07:57:15.081Z,968.08
2023-12-29T07:58:15.057Z,968.08
2023-12-29T07:59:14.999Z,968.07
2023-12-29T08:00:14.963Z,968.06
2023-12-29T08:01:15.129Z,968.10
2023-12-29T08:02:14.983Z,968.13
2023-12-29T08:03:15.000Z,968.15
2023-12-29T08:04:15.953Z,968.19
2023-12-29T08:05:14.926Z,968.14
2023-12-29T08:06:14.946Z,968.15
2023-12-29T08:07:15.002Z,968.12
2023-12-29T08:08:14.906Z,968.20
2023-12-29T08:09:14.919Z,968.15
2023-12-29T08:10:15.024Z,968.19
2023-12-29T08:11:14.902Z,968.21
2023-12-29T08:12:14.845Z,968.24
2023-12-29T08:13:14.886Z,968.20
2023-12-29T08:14:14.797Z,968.20
2023-12-29T08:15:14.815Z,968.18
2023-12-29T08:16:14.866Z,968.16
2023-12-29T08:17:14.832Z,968.15
2023-12-29T08:18:14.858Z,968.14
2023-12-29T08:19:14.789Z,968.14
2023-12-29T08:20:14.791Z,968.13
2023-12-29T08:21:14.844Z,968.18
2023-12-29T08:22:14.728Z,968.14
2023-12-29T08:23:14.737Z,968.18
2023-12-29T08:24:14.713Z,968.17
2023-12-29T08:25:14.827Z,968.15
2023-12-29T08:26:14.905Z,968.14
2023-12-29T08:27:14.650Z,968.19
2023-12-29T08:28:14.749Z,968.18
2023-12-29T08:29:14.706Z,968.23
2023-12-29T08:30:14.762Z,968.23
2023-12-29T08:31:14.836Z,968.23
2023-12-29T08:32:14.766Z,968.23
2023-12-29T08:33:14.658Z,968.25
2023-12-29T08:34:14.713Z,968.25
2023-12-29T08:35:14.779Z,968.24
2023-12-29T08:36:14.626Z,968.27
2023-12-29T08:37:14.640Z,968.26
2023-12-29T08:38:14.608Z,968.23
2023-12-29T08:39:14.513Z,968.22
2023-12-29T08:40:14.537Z,968.20
2023-12-29T08:41:14.493Z,968.17
2023-12-29T08:42:14.484Z,968.23
2023-12-29T08:43:14.495Z,968.23
2023-12-29T08:44:14.436Z,968.22
2023-12-29T08:45:14.439Z,968.20
2023-12-29T08:46:14.662Z,968.11
2023-12-29T08:47:14.412Z,968.15
2023-12-29T08:48:14.470Z,968.11
2023-12-29T08:49:14.462Z,968.06
2023-12-29T08:50:14.397Z,968.08
2023-12-29T08:51:14.321Z,968.02
2023-12-29T08:52:14.392Z,968.06
2023-12-29T08:53:14.322Z,968.04
2023-12-29T08:54:14.326Z,968.09
2023-12-29T08:55:14.334Z,968.07
2023-12-29T08:56:14.301Z,968.09
2023-12-29T08:57:14.228Z,968.05
2023-12-29T08:58:14.289Z,968.09
2023-12-29T08:59:14.197Z,968.05
2023-12-29T09:00:14.243Z,968.11
2023-12-29T09:01:14.276Z,968.02
2023-12-29T09:02:14.246Z,968.06
2023-12-29T09:03:14.189Z,968.00
2023-12-29T09:04:14.251Z,968.02
2023-12-29T09:05:14.159Z,967.99
2023-12-29T09:06:14.275Z,968.01
2023-12-29T09:07:14.135Z,968.01
2023-12-29T09:08:14.104Z,968.02
2023-12-29T09:09:14.110Z,967.96
2023-12-29T09:10:14.248Z,967.95
2023-12-29T09:11:14.714Z,968.01
2023-12-29T09:12:14.094Z,968.01
2023-12-29T09:13:14.148Z,968.02
2023-12-29T09:14:14.035Z,968.02
2023-12-29T09:15:14.020Z,968.08
2023-12-29T09:16:14.141Z,968.04
2023-12-29T09:17:14.006Z,968.07
2023-12-29T09:18:14.016Z,968.12
2023-12-29T09:19:22.687Z,968.10
2023-12-29T09:20:14.039Z,968.12
2023-12-29T09:21:13.987Z,968.17
2023-12-29T09:22:13.988Z,968.13
2023-12-29T09:23:13.899Z,968.17
2023-12-29T09:24:13.900Z,968.16
2023-12-29T09:25:13.952Z,968.18
2023-12-29T09:26:14.050Z,968.23
2023-12-29T09:27:13.893Z,968.24
2023-12-29T09:28:13.870Z,968.23
2023-12-29T09:29:13.821Z,968.23
2023-12-29T09:30:13.892Z,968.24
2023-12-29T09:31:13.931Z,968.28
2023-12-29T09:32:13.800Z,968.28
2023-12-29T09:33:14.043Z,968.30
2023-12-29T09:34:13.922Z,968.34
2023-12-29T09:35:13.740Z,968.31
2023-12-29T09:36:13.795Z,968.36
2023-12-29T09:37:13.836Z,968.34
2023-12-29T09:38:13.770Z,968.36
2023-12-29T09:39:13.691Z,968.42
2023-12-29T09:40:13.820Z,968.39
2023-12-29T09:41:13.681Z,968.40
2023-12-29T09:42:13.708Z,968.38
2023-12-29T09:43:13.746Z,968.38
2023-12-29T09:44:13.687Z,968.40
2023-12-29T09:45:13.669Z,968.42
2023-12-29T09:46:13.830Z,968.38
2023-12-29T09:47:13.589Z,968.38
2023-12-29T09:48:13.679Z,968.36
2023-12-29T09:49:13.772Z,968.35
2023-12-29T09:50:13.711Z,968.34
2023-12-29T09:51:13.542Z,968.37
2023-12-29T09:52:13.672Z,968.30
2023-12-29T09:53:13.565Z,968.39
2023-12-29T09:54:14.675Z,968.37
2023-12-29T09:55:13.530Z,968.37
2023-12-29T09:56:13.533Z,968.36
2023-12-29T09:57:13.547Z,968.41
2023-12-29T09:58:13.581Z,968.41
2023-12-29T09:59:13.505Z,968.40
2023-12-29T10:00:13.503Z,968.38
2023-12-29T10:01:13.468Z,968.44
2023-12-29T10:02:13.413Z,968.44
2023-12-29T10:03:13.416Z,968.48
2023-12-29T10:04:13.556Z,968.43
2023-12-29T10:05:13.531Z,968.44
2023-12-29T10:06:13.543Z,968.43
2023-12-29T10:07:13.426Z,968.43
2023-12-29T10:08:13.437Z,968.46
2023-12-29T10:09:13.327Z,968.39
2023-12-29T10:10:13.355Z,968.40
2023-12-29T10:11:13.348Z,968.34
2023-12-29T10:12:13.362Z,968.40
2023-12-29T10:13:13.396Z,968.41
2023-12-29T10:14:13.369Z,968.44
2023-12-29T10:15:13.269Z,968.47
2023-12-29T10:16:13.350Z,968.38
2023-12-29T10:17:13.279Z,968.36
2023-12-29T10:18:13.357Z,968.32
2023-12-29T10:19:13.279Z,968.35
2023-12-29T10:20:13.182Z,968.29
2023-12-29T10:21:13.209Z,968.26
2023-12-29T10:22:13.271Z,968.27
2023-12-29T10:23:13.135Z,968.32
2023-12-29T10:24:13.369Z,968.29
2023-12-29T10:25:13.368Z,968.34
2023-12-29T10:26:13.306Z,968.29
2023-12-29T10:27:13.152Z,968.27
2023-12-29T10:28:13.237Z,968.26
2023-12-29T10:29:13.062Z,968.21
2023-12-29T10:30:21.734Z,968.22
2023-12-29T10:31:13.205Z,968.21
2023-12-29T10:32:13.272Z,968.20
2023-12-29T10:33:13.157Z,968.14
2023-12-29T10:34:13.183Z,968.07
2023-12-29T10:35:13.029Z,968.20
2023-12-29T10:36:12.987Z,968.18
2023-12-29T10:37:13.026Z,968.14
2023-12-29T10:38:13.193Z,968.14
2023-12-29T10:39:12.941Z,968.07
2023-12-29T10:40:13.011Z,968.06
2023-12-29T10:41:12.921Z,968.03
2023-12-29T10:42:15.033Z,968.01
2023-12-29T10:43:12.981Z,968.03
2023-12-29T10:44:12.924Z,968.04
2023-12-29T10:45:12.856Z,968.03
2023-12-29T10:46:13.182Z,968.02
2023-12-29T10:47:12.874Z,968.01
2023-12-29T10:48:12.935Z,968.03
2023-12-29T10:49:12.922Z,967.96
2023-12-29T10:50:12.840Z,968.01
2023-12-29T10:51:12.827Z,967.99
2023-12-29T10:52:12.938Z,967.82
2023-12-29T10:53:12.749Z,967.90
2023-12-29T10:54:12.758Z,967.88
2023-12-29T10:55:12.765Z,967.85
2023-12-29T10:56:12.805Z,967.79
2023-12-29T10:57:12.807Z,967.75
2023-12-29T10:58:12.829Z,967.75
2023-12-29T10:59:12.687Z,967.75
2023-12-29T11:00:12.742Z,967.81
2023-12-29T11:01:12.746Z,967.79
2023-12-29T11:02:12.701Z,967.79
2023-12-29T11:03:12.730Z,967.78
2023-12-29T11:04:12.679Z,967.74
2023-12-29T11:05:12.752Z,967.81
2023-12-29T11:06:12.617Z,967.80
2023-12-29T11:07:12.616Z,967.74
2023-12-29T11:08:12.701Z,967.78
2023-12-29T11:09:12.662Z,967.73
2023-12-29T11:10:12.578Z,967.71
2023-12-29T11:11:12.534Z,967.66
2023-12-29T11:12:12.572Z,967.64
2023-12-29T11:13:12.534Z,967.74
2023-12-29T11:14:12.574Z,967.78
2023-12-29T11:15:12.502Z,967.72
2023-12-29T11:16:12.583Z,967.74
2023-12-29T11:17:12.491Z,967.71
2023-12-29T11:18:12.501Z,967.70
2023-12-29T11:19:12.550Z,967.68
2023-12-29T11:20:12.431Z,967.60
2023-12-29T11:21:12.434Z,967.64
2023-12-29T11:22:12.489Z,967.66
2023-12-29T11:23:12.369Z,967.56
2023-12-29T11:24:13.473Z,967.69
2023-12-29T11:25:12.396Z,967.56
2023-12-29T11:26:12.360Z,967.62
2023-12-29T11:27:12.321Z,967.64
2023-12-29T11:28:12.416Z,967.60
2023-12-29T11:29:12.334Z,967.67
2023-12-29T11:30:12.628Z,967.65
2023-12-29T11:31:12.330Z,967.54
2023-12-29T11:32:12.315Z,967.60
2023-12-29T11:33:12.339Z,967.64
2023-12-29T11:34:12.468Z,967.71
2023-12-29T11:35:12.217Z,967.67
2023-12-29T11:36:16.996Z,967.68
2023-12-29T11:37:12.281Z,967.66
2023-12-29T11:38:12.288Z,967.61
2023-12-29T11:39:12.183Z,967.61
2023-12-29T11:40:12.212Z,967.57
2023-12-29T11:41:12.156Z,967.55
2023-12-29T11:42:12.170Z,967.51
2023-12-29T11:43:12.115Z,967.57
2023-12-29T11:44:12.189Z,967.53
2023-12-29T11:45:12.077Z,967.52
2023-12-29T11:46:12.300Z,967.47
2023-12-29T11:47:12.047Z,967.58
2023-12-29T11:48:12.158Z,967.50
2023-12-29T11:49:12.149Z,967.54
2023-12-29T11:50:12.116Z,967.46
2023-12-29T11:51:11.989Z,967.49
2023-12-29T11:52:12.064Z,967.52
2023-12-29T11:53:12.087Z,967.47
2023-12-29T11:54:12.038Z,967.50
2023-12-29T11:55:12.067Z,967.54
2023-12-29T11:56:12.079Z,967.50
2023-12-29T11:57:11.978Z,967.45
2023-12-29T11:58:12.043Z,967.39
2023-12-29T11:59:11.921Z,967.39
2023-12-29T12:00:11.989Z,967.40
2023-12-29T12:01:12.065Z,967.41
2023-12-29T12:02:11.991Z,967.47
2023-12-29T12:03:11.900Z,967.42
2023-12-29T12:04:11.914Z,967.44
2023-12-29T12:05:11.897Z,967.42
2023-12-29T12:06:11.916Z,967.34
2023-12-29T12:07:11.853Z,967.35
2023-12-29T12:08:11.851Z,967.40
2023-12-29T12:09:11.785Z,967.33
2023-12-29T12:10:11.850Z,967.37
2023-12-29T12:11:11.736Z,967.31
2023-12-29T12:12:11.844Z,967.29
2023-12-29T12:13:11.732Z,967.30
2023-12-29T12:14:11.698Z,967.21
2023-12-29T12:15:11.739Z,967.22
2023-12-29T12:16:11.732Z,967.23
2023-12-29T12:17:11.697Z,967.19
2023-12-29T12:18:11.864Z,967.19
2023-12-29T12:19:11.734Z,967.19
2023-12-29T12:20:11.638Z,967.20
2023-12-29T12:21:11.705Z,967.18
2023-12-29T12:22:11.687Z,967.20
2023-12-29T12:23:11.619Z,967.22
2023-12-29T12:24:11.582Z,967.16
2023-12-29T12:25:11.595Z,967.17
2023-12-29T12:26:11.552Z,967.17
2023-12-29T12:27:11.567Z,967.15
2023-12-29T12:28:11.560Z,967.19